createdAt,value
2024-01-22T00:01:01.744Z,101554.69
2024-01-22T00:03:28.983Z,101558.31
2024-01-22T00:05:56.240Z,101565.94
2024-01-22T00:08:23.485Z,101566.13
2024-01-22T00:10:50.678Z,101566.75
2024-01-22T00:13:17.884Z,101576.56
2024-01-22T00:15:45.172Z,101581.19
2024-01-22T00:18:12.616Z,101577.28
2024-01-22T00:20:39.721Z,101584.34
2024-01-22T00:23:07.851Z,101587.59
2024-01-22T00:25:35.354Z,101589.19
2024-01-22T00:28:02.512Z,101588.94
2024-01-22T00:30:29.719Z,101600.91
2024-01-22T00:32:57.297Z,101597.72
2024-01-22T00:35:24.517Z,101593.84
2024-01-22T00:37:51.766Z,101597.22
2024-01-22T00:40:18.987Z,101587.97
2024-01-22T00:42:46.215Z,101585.94
2024-01-22T00:45:14.166Z,101590.75
2024-01-22T00:47:41.362Z,101593.22
2024-01-22T00:50:09.054Z,101598.97
2024-01-22T00:52:36.167Z,101598.78
2024-01-22T00:55:03.961Z,101595.66
2024-01-22T00:57:31.156Z,101594.50
2024-01-22T00:59:58.305Z,101582.78
2024-01-22T01:02:26.626Z,101587.72
2024-01-22T01:04:53.968Z,101597.94
2024-01-22T01:07:21.171Z,101589.72
2024-01-22T01:09:48.618Z,101587.00
2024-01-22T01:12:15.964Z,101583.94
2024-01-22T01:14:43.316Z,101579.19
2024-01-22T01:17:10.446Z,101578.56
2024-01-22T01:19:40.885Z,101572.91
2024-01-22T01:22:08.130Z,101573.97
2024-01-22T01:24:35.352Z,101574.44
2024-01-22T01:27:02.969Z,101575.28
2024-01-22T01:29:32.747Z,101567.75
2024-01-22T01:31:59.951Z,101556.88
2024-01-22T01:34:27.349Z,101558.34
2024-01-22T01:36:54.661Z,101560.59
2024-01-22T01:39:21.890Z,101558.91
2024-01-22T01:41:52.099Z,101561.69
2024-01-22T01:44:20.776Z,101562.06
2024-01-22T01:46:47.947Z,101559.81
2024-01-22T01:49:15.520Z,101551.13
2024-01-22T01:51:42.839Z,101559.19
2024-01-22T01:54:10.750Z,101554.22
2024-01-22T01:56:38.076Z,101549.34
2024-01-22T01:59:05.209Z,101546.38
2024-01-22T02:01:32.422Z,101550.28
2024-01-22T02:03:59.849Z,101550.25
2024-01-22T02:06:27.222Z,101551.69
2024-01-22T02:08:54.610Z,101560.50
2024-01-22T02:11:25.067Z,101555.63
2024-01-22T02:13:54.125Z,101552.44
2024-01-22T02:16:21.329Z,101564.50
2024-01-22T02:18:49.131Z,101562.38
2024-01-22T02:21:16.526Z,101560.38
2024-01-22T02:23:43.564Z,101556.16
2024-01-22T02:26:10.755Z,101558.47
2024-01-22T02:28:37.933Z,101556.63
2024-01-22T02:31:05.459Z,101561.06
2024-01-22T02:33:32.743Z,101551.50
2024-01-22T02:36:00.132Z,101557.53
2024-01-22T02:38:27.272Z,101553.84
2024-01-22T02:40:54.425Z,101553.84
2024-01-22T02:43:21.614Z,101554.50
2024-01-22T02:45:50.323Z,101560.13
2024-01-22T02:48:17.680Z,101558.91
2024-01-22T02:50:44.972Z,101557.78
2024-01-22T02:53:12.119Z,101561.06
2024-01-22T02:55:39.297Z,101562.47
2024-01-22T02:58:08.096Z,101559.00
2024-01-22T03:00:35.731Z,101561.75
2024-01-22T03:03:03.250Z,101554.25
2024-01-22T03:05:30.396Z,101565.16
2024-01-22T03:07:57.596Z,101558.72
2024-01-22T03:10:24.938Z,101561.06
2024-01-22T03:12:52.048Z,101568.50
2024-01-22T03:15:19.384Z,101563.88
2024-01-22T03:17:46.760Z,101569.94
2024-01-22T03:20:14.917Z,101579.44
2024-01-22T03:22:42.320Z,101569.50
2024-01-22T03:25:09.625Z,101580.06
2024-01-22T03:27:36.692Z,101574.31
2024-01-22T03:30:04.262Z,101566.88
2024-01-22T03:32:31.561Z,101572.81
2024-01-22T03:34:58.792Z,101578.44
2024-01-22T03:37:28.546Z,101585.03
2024-01-22T03:39:58.169Z,101580.09
2024-01-22T03:42:25.385Z,101584.22
2024-01-22T03:44:54.424Z,101582.16
2024-01-22T03:47:21.785Z,101579.13
2024-01-22T03:49:49.016Z,101588.75
2024-01-22T03:52:16.306Z,101586.84
2024-01-22T03:54:43.437Z,101582.50
2024-01-22T03:57:10.821Z,101591.16
2024-01-22T03:59:38.918Z,101584.59
2024-01-22T04:02:06.430Z,101588.75
2024-01-22T04:04:33.903Z,101588.88
2024-01-22T04:07:03.884Z,101587.66
2024-01-22T04:09:31.209Z,101588.59
2024-01-22T04:11:58.531Z,101593.22
2024-01-22T04:14:25.738Z,101589.22
2024-01-22T04:16:52.888Z,101593.97
2024-01-22T04:19:20.186Z,101591.25
2024-01-22T04:21:47.812Z,101590.31
2024-01-22T04:24:15.213Z,101585.88
2024-01-22T04:26:42.582Z,101588.44
2024-01-22T04:29:10.560Z,101587.28
2024-01-22T04:31:38.298Z,101592.59
2024-01-22T04:34:05.630Z,101586.19
2024-01-22T04:36:33.218Z,101607.31
2024-01-22T04:39:00.374Z,101602.66
2024-01-22T04:41:27.513Z,101603.31
2024-01-22T04:43:54.827Z,101600.28
2024-01-22T04:46:21.993Z,101602.19
2024-01-22T04:48:49.392Z,101599.75
2024-01-22T04:51:16.623Z,101603.94
2024-01-22T04:53:43.883Z,101601.88
2024-01-22T04:56:11.080Z,101598.81
2024-01-22T04:58:38.268Z,101598.00
2024-01-22T05:01:05.508Z,101605.72
2024-01-22T05:03:32.853Z,101606.50
2024-01-22T05:06:00.817Z,101604.44
2024-01-22T05:08:31.025Z,101606.47
2024-01-22T05:10:58.308Z,101611.00
2024-01-22T05:13:25.372Z,101611.66
2024-01-22T05:15:52.552Z,101616.59
2024-01-22T05:18:21.300Z,101619.75
2024-01-22T05:20:50.333Z,101625.75
2024-01-22T05:23:17.767Z,101621.97
2024-01-22T05:25:44.999Z,101625.09
2024-01-22T05:28:12.187Z,101620.53
2024-01-22T05:30:39.284Z,101624.25
2024-01-22T05:33:06.483Z,101614.63
2024-01-22T05:35:33.677Z,101610.19
2024-01-22T05:38:01.189Z,101609.09
2024-01-22T05:40:28.631Z,101617.84
2024-01-22T05:42:55.788Z,101611.91
2024-01-22T05:45:23.017Z,101613.97
2024-01-22T05:47:51.220Z,101613.38
2024-01-22T05:50:18.758Z,101612.59
2024-01-22T05:52:46.119Z,101615.66
2024-01-22T05:55:16.859Z,101613.38
2024-01-22T05:57:48.484Z,101614.00
2024-01-22T06:00:16.701Z,101611.94
2024-01-22T06:02:44.680Z,101611.47
2024-01-22T06:05:14.368Z,101612.75
2024-01-22T06:07:44.194Z,101614.66
2024-01-22T06:10:13.709Z,101610.44
2024-01-22T06:12:41.134Z,101619.81
2024-01-22T06:15:09.034Z,101617.84
2024-01-22T06:17:36.532Z,101622.22
2024-01-22T06:20:04.792Z,101628.81
2024-01-22T06:22:32.016Z,101627.53
2024-01-22T06:24:59.361Z,101633.78
2024-01-22T06:27:26.681Z,101624.66
2024-01-22T06:29:58.747Z,101632.16
2024-01-22T06:32:30.608Z,101627.84
2024-01-22T06:34:58.499Z,101627.38
2024-01-22T06:37:25.916Z,101630.75
2024-01-22T06:39:53.847Z,101633.78
2024-01-22T06:42:27.747Z,101633.63
2024-01-22T06:45:02.258Z,101633.00
2024-01-22T06:47:31.572Z,101640.66
2024-01-22T06:49:58.914Z,101638.88
2024-01-22T06:52:29.063Z,101640.00
2024-01-22T06:54:57.396Z,101638.41
2024-01-22T06:57:24.785Z,101639.31
2024-01-22T06:59:56.064Z,101638.13
2024-01-22T07:02:28.672Z,101644.38
2024-01-22T07:04:58.538Z,101644.31
2024-01-22T07:07:27.318Z,101649.69
2024-01-22T07:09:54.840Z,101652.97
2024-01-22T07:12:22.268Z,101655.38
2024-01-22T07:14:49.759Z,101658.91
2024-01-22T07:17:18.484Z,101660.66
2024-01-22T07:19:45.868Z,101654.22
2024-01-22T07:22:13.119Z,101651.00
2024-01-22T07:24:40.540Z,101664.97
2024-01-22T07:27:08.531Z,101668.69
2024-01-22T07:29:35.684Z,101660.75
2024-01-22T07:32:03.659Z,101664.66
2024-01-22T07:34:31.076Z,101662.09
2024-01-22T07:36:58.376Z,101673.81
2024-01-22T07:39:26.146Z,101666.78
2024-01-22T07:41:53.510Z,101681.81
2024-01-22T07:44:20.776Z,101677.97
2024-01-22T07:46:50.413Z,101675.13
2024-01-22T07:49:18.170Z,101679.38
2024-01-22T07:51:45.381Z,101673.81
2024-01-22T07:54:12.282Z,101664.06
2024-01-22T07:56:39.403Z,101671.91
2024-01-22T07:59:06.488Z,101679.38
2024-01-22T08:01:33.800Z,101683.38
2024-01-22T08:04:04.297Z,101677.09
2024-01-22T08:06:32.700Z,101683.13
2024-01-22T08:09:00.977Z,101686.69
2024-01-22T08:11:28.102Z,101678.53
2024-01-22T08:13:55.064Z,101669.19
2024-01-22T08:16:22.133Z,101664.38
2024-01-22T08:18:49.349Z,101666.75
2024-01-22T08:21:16.801Z,101667.84
2024-01-22T08:23:43.809Z,101673.97
2024-01-22T08:26:10.899Z,101657.41
2024-01-22T08:28:37.895Z,101661.34
2024-01-22T08:31:05.077Z,101666.63
2024-01-22T08:33:32.559Z,101658.66
2024-01-22T08:36:01.053Z,101664.38
2024-01-22T08:38:28.988Z,101661.53
2024-01-22T08:40:56.157Z,101659.66
2024-01-22T08:43:23.622Z,101659.59
2024-01-22T08:45:53.859Z,101660.53
2024-01-22T08:48:21.444Z,101657.47
2024-01-22T08:50:48.716Z,101653.75
2024-01-22T08:53:18.426Z,101654.00
2024-01-22T08:56:15.001Z,101650.88
2024-01-22T08:58:42.200Z,101647.41
2024-01-22T09:01:09.948Z,101650.59
2024-01-22T09:03:38.256Z,101641.44
2024-01-22T09:06:06.580Z,101643.78
2024-01-22T09:08:35.532Z,101640.50
2024-01-22T09:11:04.227Z,101641.66
2024-01-22T09:13:31.658Z,101643.00
2024-01-22T09:16:00.149Z,101645.22
2024-01-22T09:18:27.582Z,101643.44
2024-01-22T09:20:56.298Z,101645.25
2024-01-22T09:23:23.432Z,101634.09
2024-01-22T09:25:50.378Z,101628.50
2024-01-22T09:28:18.463Z,101632.06
2024-01-22T09:30:45.926Z,101631.28
2024-01-22T09:33:13.059Z,101623.53
2024-01-22T09:35:42.475Z,101622.75
2024-01-22T09:38:10.301Z,101616.31
2024-01-22T09:40:37.329Z,101616.16
2024-01-22T09:43:05.213Z,101614.72
2024-01-22T09:45:34.069Z,101609.78
2024-01-22T09:48:02.067Z,101600.03
2024-01-22T09:50:29.720Z,101599.25
2024-01-22T09:53:12.288Z,101590.25
2024-01-22T09:55:42.352Z,101581.09
2024-01-22T09:58:10.952Z,101590.09
2024-01-22T10:00:40.338Z,101585.13
2024-01-22T10:03:08.539Z,101588.66
2024-01-22T10:05:35.824Z,101572.75
2024-01-22T10:08:03.263Z,101574.09
2024-01-22T10:10:30.497Z,101568.53
2024-01-22T10:13:05.444Z,101561.81
2024-01-22T10:15:38.351Z,101563.56
2024-01-22T10:18:18.380Z,101561.88
2024-01-22T10:20:48.636Z,101557.41
2024-01-22T10:23:19.396Z,101558.41
2024-01-22T10:25:48.912Z,101547.78
2024-01-22T10:28:19.509Z,101541.69
2024-01-22T10:31:02.867Z,101539.00
2024-01-22T10:33:30.337Z,101528.94
2024-01-22T10:35:58.956Z,101531.97
2024-01-22T10:38:26.345Z,101527.47
2024-01-22T10:40:54.147Z,101527.97
2024-01-22T10:43:30.032Z,101523.84
2024-01-22T10:46:00.003Z,101519.16
2024-01-22T10:48:38.325Z,101512.59
2024-01-22T10:51:12.949Z,101517.63
2024-01-22T10:53:41.512Z,101514.59
2024-01-22T10:56:29.790Z,101501.97
2024-01-22T10:58:58.369Z,101506.28
2024-01-22T11:01:28.508Z,101510.31
2024-01-22T11:03:59.101Z,101506.41
2024-01-22T11:06:31.045Z,101506.06
2024-01-22T11:08:59.162Z,101509.47
2024-01-22T11:11:29.240Z,101503.69
2024-01-22T11:14:00.946Z,101503.03
2024-01-22T11:16:29.108Z,101493.00
2024-01-22T11:19:02.162Z,101501.31
2024-01-22T11:21:36.285Z,101486.81
2024-01-22T11:24:32.919Z,101485.75
2024-01-22T11:27:00.055Z,101483.00
2024-01-22T11:29:30.311Z,101485.81
2024-01-22T11:32:27.695Z,101479.59
2024-01-22T11:35:05.824Z,101475.25
2024-01-22T11:37:39.850Z,101479.31
2024-01-22T11:40:09.187Z,101483.19
2024-01-22T11:42:37.296Z,101475.19
2024-01-22T11:45:14.133Z,101475.72
2024-01-22T11:47:43.474Z,101471.72
2024-01-22T11:50:11.569Z,101461.66
2024-01-22T11:52:39.732Z,101463.22
2024-01-22T11:55:08.816Z,101464.06
2024-01-22T11:57:39.052Z,101464.88
2024-01-22T12:00:20.731Z,101462.91
2024-01-22T12:02:49.903Z,101456.00
2024-01-22T12:05:21.360Z,101444.78
2024-01-22T12:07:51.002Z,101450.63
2024-01-22T12:10:23.184Z,101448.97
2024-01-22T12:13:01.049Z,101443.38
2024-01-22T12:15:30.950Z,101454.66
2024-01-22T12:17:58.235Z,101441.94
2024-01-22T12:20:26.950Z,101442.00
2024-01-22T12:23:05.544Z,101449.72
2024-01-22T12:25:41.797Z,101439.91
2024-01-22T12:28:14.632Z,101443.56
2024-01-22T12:30:46.108Z,101442.19
2024-01-22T12:33:22.880Z,101444.44
2024-01-22T12:35:53.767Z,101447.06
2024-01-22T12:38:25.035Z,101433.84
2024-01-22T12:41:01.516Z,101443.28
2024-01-22T12:43:30.105Z,101446.03
2024-01-22T12:46:29.392Z,101440.28
2024-01-22T12:48:57.560Z,101439.31
2024-01-22T12:51:28.212Z,101443.84
2024-01-22T12:53:56.489Z,101441.50
2024-01-22T12:56:24.088Z,101439.00
2024-01-22T12:58:53.183Z,101442.94
2024-01-22T13:01:20.358Z,101439.56
2024-01-22T13:03:47.563Z,101435.88
2024-01-22T13:06:14.944Z,101439.31
2024-01-22T13:08:42.019Z,101442.19
2024-01-22T13:11:10.022Z,101428.81
2024-01-22T13:13:37.282Z,101434.97
2024-01-22T13:16:13.941Z,101427.84
2024-01-22T13:18:45.561Z,101418.91
2024-01-22T13:21:14.708Z,101414.50
2024-01-22T13:23:42.451Z,101421.31
2024-01-22T13:30:29.082Z,101428.59
2024-01-22T13:32:56.563Z,101427.25
2024-01-22T13:35:23.886Z,101415.44
2024-01-22T13:37:50.782Z,101410.63
2024-01-22T13:40:18.525Z,101415.44
2024-01-22T13:42:45.595Z,101407.31
2024-01-22T13:45:12.626Z,101406.69
2024-01-22T13:47:40.668Z,101402.00
2024-01-22T13:50:08.523Z,101402.38
2024-01-22T13:52:36.264Z,101399.13
2024-01-22T13:55:05.784Z,101404.47
2024-01-22T13:57:33.081Z,101402.16
2024-01-22T14:00:00.995Z,101394.06
2024-01-22T14:02:31.446Z,101404.50
2024-01-22T14:04:58.400Z,101395.97
2024-01-22T14:07:25.286Z,101388.72
2024-01-22T14:09:52.569Z,101398.69
2024-01-22T14:12:20.297Z,101395.84
2024-01-22T14:14:48.077Z,101400.03
2024-01-22T14:17:15.720Z,101399.81
2024-01-22T14:19:42.895Z,101395.94
2024-01-22T14:22:10.690Z,101394.38
2024-01-22T14:24:37.724Z,101390.69
2024-01-22T14:27:05.729Z,101388.19
2024-01-22T14:29:33.526Z,101394.31
2024-01-22T14:32:01.144Z,101389.66
2024-01-22T14:34:28.525Z,101393.34
2024-01-22T14:36:55.505Z,101390.25
2024-01-22T14:39:23.992Z,101389.16
2024-01-22T14:41:51.396Z,101379.00
2024-01-22T14:44:18.437Z,101374.31
2024-01-22T14:46:47.196Z,101382.94
2024-01-22T14:49:17.356Z,101381.63
2024-01-22T14:51:50.799Z,101383.16
2024-01-22T14:54:17.767Z,101376.06
2024-01-22T14:56:45.549Z,101374.34
2024-01-22T14:59:13.009Z,101373.00
2024-01-22T15:01:40.101Z,101373.03
2024-01-22T15:04:08.119Z,101360.72
2024-01-22T15:06:35.260Z,101355.81
2024-01-22T15:09:03.680Z,101354.41
2024-01-22T15:11:31.722Z,101361.09
2024-01-22T15:13:59.641Z,101356.97
2024-01-22T15:16:28.555Z,101349.16
2024-01-22T15:18:59.701Z,101358.41
2024-01-22T15:21:26.981Z,101349.03
2024-01-22T15:23:55.583Z,101352.78
2024-01-22T15:26:23.408Z,101349.59
2024-01-22T15:28:51.328Z,101351.59
2024-01-22T15:31:18.745Z,101352.44
2024-01-22T15:33:46.264Z,101360.16
2024-01-22T15:36:14.504Z,101356.63
2024-01-22T15:38:47.792Z,101347.66
2024-01-22T15:41:18.619Z,101348.91
2024-01-22T15:43:47.031Z,101357.78
2024-01-22T15:46:18.608Z,101345.06
2024-01-22T15:48:49.058Z,101349.84
2024-01-22T15:51:16.430Z,101357.72
2024-01-22T15:53:43.459Z,101350.53
2024-01-22T15:56:13.045Z,101354.44
2024-01-22T15:58:42.052Z,101353.66
2024-01-22T16:01:20.474Z,101351.06
2024-01-22T16:03:56.305Z,101352.31
2024-01-22T16:06:26.005Z,101353.75
2024-01-22T16:09:00.703Z,101351.97
2024-01-22T16:11:31.880Z,101359.91
2024-01-22T16:14:00.084Z,101362.75
2024-01-22T16:16:28.915Z,101362.00
2024-01-22T16:18:59.209Z,101361.03
2024-01-22T16:21:31.923Z,101366.16
2024-01-22T16:24:03.813Z,101360.63
2024-01-22T16:26:31.318Z,101352.25
2024-01-22T16:28:59.372Z,101356.88
2024-01-22T16:31:26.369Z,101357.88
2024-01-22T16:33:53.440Z,101360.69
2024-01-22T16:36:23.754Z,101355.28
2024-01-22T16:38:50.970Z,101355.69
2024-01-22T16:41:19.599Z,101351.53
2024-01-22T16:43:47.304Z,101351.13
2024-01-22T16:46:14.905Z,101359.69
2024-01-22T16:49:02.947Z,101354.34
2024-01-22T16:51:49.839Z,101347.97
2024-01-22T16:54:17.374Z,101349.97
2024-01-22T16:56:44.621Z,101357.34
2024-01-22T16:59:12.450Z,101356.31
2024-01-22T17:01:39.751Z,101344.41
2024-01-22T17:04:06.819Z,101348.56
2024-01-22T17:06:37.351Z,101346.78
2024-01-22T17:09:05.133Z,101344.41
2024-01-22T17:11:32.236Z,101347.78
2024-01-22T17:13:59.954Z,101344.41
2024-01-22T17:16:26.899Z,101342.00
2024-01-22T17:18:54.180Z,101340.19
2024-01-22T17:21:22.091Z,101326.69
2024-01-22T17:23:49.351Z,101332.66
2024-01-22T17:26:17.992Z,101323.72
2024-01-22T17:28:48.348Z,101332.66
2024-01-22T17:31:16.143Z,101324.47
2024-01-22T17:33:46.808Z,101328.28
2024-01-22T17:36:17.316Z,101322.53
2024-01-22T17:38:45.767Z,101328.06
2024-01-22T17:41:14.340Z,101332.44
2024-01-22T17:43:41.445Z,101329.84
2024-01-22T17:46:10.142Z,101322.69
2024-01-22T17:48:37.618Z,101325.69
2024-01-22T17:51:08.054Z,101324.69
2024-01-22T17:53:35.074Z,101322.47
2024-01-22T17:56:04.282Z,101322.06
2024-01-22T17:58:31.333Z,101316.09
2024-01-22T18:00:58.403Z,101325.00
2024-01-22T18:03:26.527Z,101316.31
2024-01-22T18:05:53.992Z,101324.09
2024-01-22T18:08:21.042Z,101320.28
2024-01-22T18:10:51.496Z,101319.31
2024-01-22T18:13:21.387Z,101322.47
2024-01-22T18:15:50.083Z,101313.34
2024-01-22T18:18:17.306Z,101314.16
2024-01-22T18:20:44.315Z,101306.19
2024-01-22T18:23:11.342Z,101310.53
2024-01-22T18:25:38.386Z,101303.00
2024-01-22T18:28:10.365Z,101298.63
2024-01-22T18:30:40.534Z,101287.91
2024-01-22T18:33:10.635Z,101290.28
2024-01-22T18:35:40.168Z,101298.59
2024-01-22T18:38:08.825Z,101288.47
2024-01-22T18:40:36.171Z,101283.91
2024-01-22T18:43:04.236Z,101275.59
2024-01-22T18:45:33.369Z,101281.78
2024-01-22T18:48:01.187Z,101276.75
2024-01-22T18:50:28.413Z,101277.13
2024-01-22T18:52:58.962Z,101286.19
2024-01-22T18:55:26.151Z,101281.44
2024-01-22T18:57:53.349Z,101283.97
2024-01-22T19:00:21.111Z,101280.66
2024-01-22T19:02:49.511Z,101289.44
2024-01-22T19:05:19.105Z,101285.88
2024-01-22T19:07:47.988Z,101290.16
2024-01-22T19:10:16.058Z,101283.97
2024-01-22T19:12:43.307Z,101282.56
2024-01-22T19:15:12.755Z,101272.94
2024-01-22T19:17:43.608Z,101275.78
2024-01-22T19:20:12.476Z,101268.25
2024-01-22T19:22:42.075Z,101265.47
2024-01-22T19:25:09.732Z,101266.34
2024-01-22T19:27:39.802Z,101262.50
2024-01-22T19:30:10.079Z,101251.75
2024-01-22T19:32:43.522Z,101257.09
2024-01-22T19:35:13.617Z,101253.81
2024-01-22T19:37:42.182Z,101244.28
2024-01-22T19:40:10.115Z,101242.91
2024-01-22T19:42:40.298Z,101250.28
2024-01-22T19:45:09.209Z,101247.72
2024-01-22T19:47:38.956Z,101245.50
2024-01-22T19:50:09.544Z,101233.94
2024-01-22T19:52:37.412Z,101231.31
2024-01-22T19:55:04.716Z,101226.53
2024-01-22T19:57:32.091Z,101219.16
2024-01-22T20:00:03.977Z,101221.75
2024-01-22T20:02:43.457Z,101219.97
2024-01-22T20:05:11.724Z,101215.66
2024-01-22T20:07:41.545Z,101211.28
2024-01-22T20:10:09.573Z,101215.56
2024-01-22T20:12:38.421Z,101221.72
2024-01-22T20:15:07.656Z,101213.03
2024-01-22T20:17:35.721Z,101217.28
2024-01-22T20:20:07.678Z,101204.44
2024-01-22T20:22:35.588Z,101210.22
2024-01-22T20:25:24.137Z,101206.66
2024-01-22T20:27:54.277Z,101195.53
2024-01-22T20:30:22.017Z,101191.97
2024-01-22T20:32:50.272Z,101189.19
2024-01-22T20:35:17.925Z,101191.16
2024-01-22T20:37:46.352Z,101184.41
2024-01-22T20:40:15.219Z,101176.25
2024-01-22T20:43:03.791Z,101179.84
2024-01-22T20:45:33.247Z,101188.34
2024-01-22T20:48:00.399Z,101181.44
2024-01-22T20:50:27.557Z,101181.66
2024-01-22T20:52:55.252Z,101180.84
2024-01-22T20:55:24.041Z,101182.03
2024-01-22T20:57:51.369Z,101179.25
2024-01-22T21:00:20.744Z,101185.38
2024-01-22T21:02:51.234Z,101182.59
2024-01-22T21:05:39.135Z,101176.81
2024-01-22T21:08:07.012Z,101166.75
2024-01-22T21:10:34.239Z,101172.66
2024-01-22T21:13:01.538Z,101168.31
2024-01-22T21:15:29.503Z,101163.94
2024-01-22T21:17:56.774Z,101165.75
2024-01-22T21:20:24.469Z,101160.78
2024-01-22T21:22:52.000Z,101161.91
2024-01-22T21:25:39.185Z,101153.75
2024-01-22T21:28:08.358Z,101154.09
2024-01-22T21:30:35.425Z,101157.59
2024-01-22T21:33:02.632Z,101148.78
2024-01-22T21:35:29.658Z,101141.88
2024-01-22T21:37:59.245Z,101142.44
2024-01-22T21:40:26.263Z,101144.47
2024-01-22T21:42:53.729Z,101141.97
2024-01-22T21:45:20.742Z,101137.91
2024-01-22T21:47:50.691Z,101136.69
2024-01-22T21:50:17.801Z,101138.97
2024-01-22T21:52:44.749Z,101129.63
2024-01-22T21:55:12.614Z,101123.13
2024-01-22T21:57:40.437Z,101119.94
2024-01-22T22:00:08.743Z,101117.06
2024-01-22T22:02:42.112Z,101120.81
2024-01-22T22:05:10.888Z,101110.59
2024-01-22T22:07:38.541Z,101115.16
2024-01-22T22:10:08.136Z,101109.69
2024-01-22T22:12:38.334Z,101108.28
2024-01-22T22:15:06.452Z,101109.00
2024-01-22T22:17:33.622Z,101103.69
2024-01-22T22:20:02.309Z,101108.63
2024-01-22T22:22:29.370Z,101105.75
2024-01-22T22:24:56.652Z,101105.72
2024-01-22T22:27:23.853Z,101102.63
2024-01-22T22:29:50.896Z,101109.34
2024-01-22T22:32:18.510Z,101090.66
2024-01-22T22:34:45.671Z,101095.00
2024-01-22T22:37:14.113Z,101090.28
2024-01-22T22:39:41.146Z,101084.53
2024-01-22T22:42:10.690Z,101087.94
2024-01-22T22:44:37.871Z,101080.53
2024-01-22T22:47:04.862Z,101068.03
2024-01-22T22:49:32.028Z,101065.59
2024-01-22T22:51:59.108Z,101067.28
2024-01-22T22:54:26.077Z,101069.25
2024-01-22T22:56:53.089Z,101071.50
2024-01-22T22:59:20.166Z,101068.63
2024-01-22T23:01:50.393Z,101058.94
2024-01-22T23:04:17.792Z,101063.69
2024-01-22T23:06:44.787Z,101052.56
2024-01-22T23:09:14.241Z,101049.75
2024-01-22T23:11:41.912Z,101049.88
2024-01-22T23:14:10.849Z,101056.31
2024-01-22T23:16:37.949Z,101052.72
2024-01-22T23:19:05.380Z,101051.69
2024-01-22T23:21:33.352Z,101045.06
2024-01-22T23:24:01.610Z,101036.03
2024-01-22T23:26:28.727Z,101042.03
2024-01-22T23:28:55.792Z,101042.00
2024-01-22T23:31:23.126Z,101035.78
2024-01-22T23:33:50.319Z,101033.34
2024-01-22T23:36:17.508Z,101030.88
2024-01-22T23:38:44.938Z,101027.09
2024-01-22T23:41:11.939Z,101032.00
2024-01-22T23:43:39.000Z,101035.53
2024-01-22T23:46:06.346Z,101024.41
2024-01-22T23:48:33.599Z,101027.84
2024-01-22T23:51:00.965Z,101017.94
2024-01-22T23:53:29.161Z,101022.50
2024-01-22T23:55:56.425Z,101015.75
2024-01-22T23:58:23.608Z,101014.66
